»·PEaware :: N415CS KPSP-KSAN

N415CS :: KPSP-KSAN

FLIGHT INFORMATION

Flight Status: Arrived
Operator: Privately registered:
United States
More flights under this callsign
Pilot: Kyle A. (14988)
Aircraft: CESSNA 182 SKYLANE
(C182)
More flights by this aircraft type
Origin: KPSP Palm Springs Intl
United States
Destination: KSAN San Diego Intl-Lindbergh
United States
More flights between these airports :: More routes between these airports
Route: PSP TRM V514 RYAHH
File this flight plan on PilotEdge
Remarks:
Altitude:
(Current/Filed)
10,000ft
Speed:
(Current/Filed)
135kts
Departed: 16-Nov-17 01:55 PM
Arrived: 16-Nov-17 02:49 PM
Distance/Time
Traveled:
74nm/0:53
Distance/Time
To Go:
Arrived

Flight Plot

Page will automatically refresh every two minutes.

Flight plan parsing failed; only flown route is shown


Map Options




Map Legend


Flown Route
Filed Route
Departure Airport
Arrival Airport
Navaid (VOR, NDB)
Fix

Horizontal Profiles

Position Reports

Time Latitude Longitude Heading Altitude Ground
Speed
16-Nov-17 13:32 33.826537 -116.509588 85 480ft 0kts
16-Nov-17 13:33 33.826537 -116.509585 85 480ft 0kts
16-Nov-17 13:34 33.826537 -116.509582 85 480ft 0kts
16-Nov-17 13:35 33.826537 -116.509580 85 480ft 0kts
16-Nov-17 13:36 33.826537 -116.509578 85 480ft 0kts
16-Nov-17 13:37 33.826538 -116.509576 85 480ft 0kts
16-Nov-17 13:38 33.826538 -116.509574 85 480ft 0kts
16-Nov-17 13:39 33.826538 -116.509572 85 480ft 0kts
16-Nov-17 13:40 33.826538 -116.509570 85 480ft 0kts
16-Nov-17 13:41 33.826538 -116.509568 85 480ft 0kts
16-Nov-17 13:42 33.826538 -116.509566 85 480ft 0kts
16-Nov-17 13:43 33.826538 -116.509564 85 480ft 0kts
16-Nov-17 13:44 33.826538 -116.509562 85 480ft 0kts
16-Nov-17 13:45 33.826539 -116.509560 85 480ft 0kts
16-Nov-17 13:46 33.826539 -116.509558 85 480ft 0kts
16-Nov-17 13:47 33.826539 -116.509556 85 480ft 0kts
16-Nov-17 13:48 33.826539 -116.509554 85 480ft 0kts
16-Nov-17 13:49 33.826539 -116.509552 85 480ft 0kts
16-Nov-17 13:50 33.826539 -116.509550 85 480ft 0kts
16-Nov-17 13:51 33.826539 -116.509548 85 480ft 0kts
16-Nov-17 13:52 33.826539 -116.509546 85 480ft 0kts
16-Nov-17 13:53 33.826798 -116.508987 8 480ft 5kts
16-Nov-17 13:54 33.828697 -116.509049 87 480ft 7kts
16-Nov-17 13:55 33.825538 -116.506050 143 480ft 16kts
16-Nov-17 13:56 33.822397 -116.503254 142 480ft 13kts
16-Nov-17 13:57 33.819500 -116.500647 144 480ft 16kts
16-Nov-17 13:58 33.818521 -116.498971 85 480ft 0kts
16-Nov-17 13:59 33.818626 -116.498430 49 480ft 12kts
16-Nov-17 14:00 33.830719 -116.507439 332 878ft 78kts
16-Nov-17 14:01 33.852836 -116.524846 322 1605ft 103kts
16-Nov-17 14:02 33.873024 -116.544252 321 2406ft 82kts
16-Nov-17 14:03 33.889253 -116.560158 319 3154ft 70kts
16-Nov-17 14:04 33.900628 -116.548456 108 3786ft 113kts
16-Nov-17 14:05 33.890732 -116.511625 106 4680ft 102kts
16-Nov-17 14:06 33.883313 -116.481989 107 5620ft 96kts
16-Nov-17 14:07 33.874129 -116.446055 107 6473ft 124kts
16-Nov-17 14:08 33.860694 -116.407902 117 7476ft 124kts
16-Nov-17 14:09 33.842838 -116.375353 142 8456ft 104kts
16-Nov-17 14:10 33.820365 -116.355022 143 9246ft 115kts
16-Nov-17 14:11 33.792280 -116.326824 142 9758ft 142kts
16-Nov-17 14:12 33.760479 -116.294507 142 9987ft 161kts
16-Nov-17 14:13 33.726273 -116.259752 142 9994ft 163kts
16-Nov-17 14:14 33.692015 -116.224974 142 9996ft 163kts
16-Nov-17 14:15 33.657548 -116.190016 142 9990ft 163kts
16-Nov-17 14:16 33.619567 -116.169262 201 9997ft 154kts
16-Nov-17 14:17 33.585901 -116.197421 217 9994ft 141kts
16-Nov-17 14:18 33.554037 -116.225332 217 10009ft 146kts
16-Nov-17 14:19 33.521768 -116.253636 217 9996ft 139kts
16-Nov-17 14:20 33.491032 -116.280535 218 10005ft 134kts
16-Nov-17 14:21 33.459882 -116.307823 218 10020ft 148kts
16-Nov-17 14:22 33.427183 -116.336405 218 9998ft 140kts
16-Nov-17 14:23 33.396018 -116.363641 218 10008ft 138kts
16-Nov-17 14:24 33.363996 -116.391610 218 10013ft 149kts
16-Nov-17 14:25 33.330351 -116.420950 218 10012ft 152kts
16-Nov-17 14:26 33.296292 -116.450660 218 10017ft 152kts
16-Nov-17 14:27 33.262573 -116.480025 218 10027ft 149kts
16-Nov-17 14:28 33.229004 -116.509196 218 10041ft 152kts
16-Nov-17 14:29 33.195726 -116.538077 218 9997ft 141kts
16-Nov-17 14:30 33.163800 -116.565799 218 10010ft 147kts
16-Nov-17 14:31 33.127371 -116.587980 185 10013ft 158kts
16-Nov-17 14:32 33.085226 -116.591774 188 10002ft 145kts
16-Nov-17 14:33 33.045203 -116.595877 188 10017ft 147kts
16-Nov-17 14:34 33.004387 -116.600086 188 10008ft 144kts
16-Nov-17 14:35 32.964676 -116.604204 189 9998ft 142kts
16-Nov-17 14:36 32.924226 -116.608423 189 10009ft 153kts
16-Nov-17 14:37 32.881611 -116.614266 207 9996ft 153kts
16-Nov-17 14:38 32.842778 -116.642476 212 9209ft 169kts
16-Nov-17 14:39 32.802115 -116.671932 213 8402ft 172kts
16-Nov-17 14:40 32.761348 -116.700665 211 7579ft 169kts
16-Nov-17 14:41 32.721248 -116.729033 211 6784ft 170kts
16-Nov-17 14:42 32.684638 -116.754797 211 6013ft 159kts
16-Nov-17 14:43 32.662264 -116.790263 280 5213ft 144kts
16-Nov-17 14:44 32.669169 -116.838439 280 5002ft 145kts
16-Nov-17 14:45 32.672458 -116.885171 254 4948ft 147kts
16-Nov-17 14:46 32.667874 -116.933716 300 4016ft 148kts
16-Nov-17 14:47 32.679814 -116.975393 286 3421ft 143kts
16-Nov-17 14:48 32.691161 -117.020744 287 2927ft 139kts
16-Nov-17 14:49 32.702149 -117.064581 286 2173ft 135kts
16-Nov-17 14:50 32.712063 -117.104271 287 1508ft 99kts
16-Nov-17 14:51 32.719778 -117.132527 288 984ft 81kts
16-Nov-17 14:52 32.725777 -117.157361 288 558ft 73kts
16-Nov-17 14:53 32.730964 -117.179050 286 50ft 58kts
16-Nov-17 14:54 32.732745 -117.184396 15 18ft 8kts
16-Nov-17 14:55 32.733116 -117.184219 46 18ft 0kts
16-Nov-17 14:56 32.732618 -117.179840 20 18ft 11kts
16-Nov-17 14:57 32.733517 -117.178227 146 18ft 0kts
16-Nov-17 14:58 32.733638 -117.178084 233 18ft 0kts
16-Nov-17 14:59 32.733638 -117.178084 233 18ft 0kts
16-Nov-17 15:00 32.733638 -117.178084 233 18ft 0kts
16-Nov-17 15:01 32.733638 -117.178084 233 18ft 0kts
16-Nov-17 15:02 32.733638 -117.178084 233 18ft 0kts
16-Nov-17 15:03 32.733638 -117.178084 233 18ft 0kts
16-Nov-17 15:04 32.733638 -117.178084 233 18ft 0kts

Navigation Log

Ident Type
Flight plan parsing failed, navigation log unavailable